createdAt,value
2018-09-22T00:00:03.811Z,20.90
2018-09-22T00:01:03.885Z,20.90
2018-09-22T00:02:03.919Z,20.89
2018-09-22T00:03:03.959Z,20.81
2018-09-22T00:04:04.010Z,20.80
2018-09-22T00:05:04.052Z,20.98
2018-09-22T00:06:04.089Z,20.99
2018-09-22T00:07:04.157Z,20.83
2018-09-22T00:08:04.164Z,20.84
2018-09-22T00:09:04.215Z,20.81
2018-09-22T00:10:04.267Z,20.83
2018-09-22T00:11:04.326Z,20.83
2018-09-22T00:12:04.394Z,20.80
2018-09-22T00:13:04.426Z,20.95
2018-09-22T00:14:04.466Z,20.90
2018-09-22T00:15:04.522Z,20.95
2018-09-22T00:16:04.558Z,20.89
2018-09-22T00:17:04.618Z,20.81
2018-09-22T00:18:04.662Z,20.83
2018-09-22T00:19:04.668Z,20.80
2018-09-22T00:20:04.756Z,20.72
2018-09-22T00:21:05.077Z,20.74
2018-09-22T00:22:04.845Z,20.74
2018-09-22T00:23:04.892Z,20.68
2018-09-22T00:24:04.928Z,20.69
2018-09-22T00:25:04.987Z,20.72
2018-09-22T00:26:05.020Z,20.68
2018-09-22T00:27:05.126Z,20.61
2018-09-22T00:28:05.099Z,20.66
2018-09-22T00:29:05.144Z,20.65
2018-09-22T00:30:05.198Z,20.71
2018-09-22T00:31:05.245Z,20.74
2018-09-22T00:32:05.265Z,20.71
2018-09-22T00:33:05.652Z,20.68
2018-09-22T00:34:05.378Z,20.74
2018-09-22T00:35:05.437Z,20.71
2018-09-22T00:36:05.451Z,20.65
2018-09-22T00:37:05.500Z,20.66
2018-09-22T00:38:05.560Z,20.72
2018-09-22T00:39:05.915Z,20.72
2018-09-22T00:40:05.648Z,20.69
2018-09-22T00:41:05.684Z,20.69
2018-09-22T00:42:05.727Z,20.65
2018-09-22T00:43:05.804Z,20.65
2018-09-22T00:44:05.856Z,20.66
2018-09-22T00:45:06.168Z,20.66
2018-09-22T00:46:05.939Z,20.66
2018-09-22T00:47:05.954Z,20.69
2018-09-22T00:48:06.023Z,20.66
2018-09-22T00:49:06.043Z,20.58
2018-09-22T00:50:06.119Z,20.59
2018-09-22T00:51:06.454Z,20.53
2018-09-22T00:52:06.200Z,20.58
2018-09-22T00:53:06.245Z,20.53
2018-09-22T00:54:06.301Z,20.54
2018-09-22T00:55:06.344Z,20.49
2018-09-22T00:56:06.402Z,20.41
2018-09-22T00:57:06.727Z,20.42
2018-09-22T00:58:06.478Z,20.47
2018-09-22T00:59:06.498Z,20.41
2018-09-22T01:00:06.564Z,20.41
2018-09-22T01:01:06.618Z,20.34
2018-09-22T01:02:06.643Z,20.43
2018-09-22T01:03:06.994Z,20.54
2018-09-22T01:04:06.734Z,20.50
2018-09-22T01:05:06.809Z,20.53
2018-09-22T01:06:06.815Z,20.53
2018-09-22T01:07:06.879Z,20.56
2018-09-22T01:08:06.965Z,20.51
2018-09-22T01:09:06.974Z,20.54
2018-09-22T01:10:07.252Z,20.49
2018-09-22T01:11:07.057Z,20.51
2018-09-22T01:12:07.146Z,20.46
2018-09-22T01:13:07.169Z,20.47
2018-09-22T01:14:07.198Z,20.51
2018-09-22T01:15:07.251Z,20.50
2018-09-22T01:16:07.301Z,20.47
2018-09-22T01:17:07.338Z,20.56
2018-09-22T01:18:07.360Z,20.58
2018-09-22T01:19:07.436Z,20.56
2018-09-22T01:20:07.747Z,20.50
2018-09-22T01:21:07.518Z,20.54
2018-09-22T01:22:07.609Z,20.53
2018-09-22T01:23:07.647Z,20.68
2018-09-22T01:24:07.634Z,20.62
2018-09-22T01:25:07.686Z,20.68
2018-09-22T01:26:07.749Z,20.68
2018-09-22T01:27:07.832Z,20.61
2018-09-22T01:28:07.834Z,20.56
2018-09-22T01:29:07.880Z,20.43
2018-09-22T01:30:08.231Z,20.43
2018-09-22T01:31:07.956Z,20.34
2018-09-22T01:32:08.004Z,20.42
2018-09-22T01:33:08.060Z,20.39
2018-09-22T01:34:08.096Z,20.39
2018-09-22T01:35:08.412Z,20.38
2018-09-22T01:36:08.187Z,20.28
2018-09-22T01:37:08.259Z,20.31
2018-09-22T01:38:08.331Z,20.28
2018-09-22T01:39:08.309Z,20.23
2018-09-22T01:40:08.678Z,20.13
2018-09-22T01:41:08.429Z,20.10
2018-09-22T01:42:08.464Z,20.12
2018-09-22T01:43:08.515Z,20.09
2018-09-22T01:44:08.551Z,20.05
2018-09-22T01:45:08.621Z,19.98
2018-09-22T01:46:08.923Z,20.03
2018-09-22T01:47:08.704Z,20.02
2018-09-22T01:48:08.763Z,19.98
2018-09-22T01:49:08.830Z,19.93
2018-09-22T01:50:08.849Z,19.93
2018-09-22T01:51:08.922Z,19.87
2018-09-22T01:52:08.904Z,19.97
2018-09-22T01:53:08.982Z,19.88
2018-09-22T01:54:09.016Z,19.90
2018-09-22T01:55:09.111Z,19.78
2018-09-22T01:56:09.355Z,19.86
2018-09-22T01:57:09.138Z,19.80
2018-09-22T01:58:09.195Z,19.86
2018-09-22T01:59:09.230Z,19.87
2018-09-22T02:00:09.278Z,19.69
2018-09-22T02:01:09.330Z,19.68
2018-09-22T02:02:09.666Z,19.58
2018-09-22T02:03:09.418Z,19.58
2018-09-22T02:04:09.454Z,19.63
2018-09-22T02:05:09.513Z,19.60
2018-09-22T02:06:09.557Z,19.60
2018-09-22T02:07:09.575Z,19.55
2018-09-22T02:08:09.987Z,19.54
2018-09-22T02:09:09.695Z,19.50
2018-09-22T02:10:09.768Z,19.57
2018-09-22T02:11:09.766Z,19.51
2018-09-22T02:12:09.828Z,19.48
2018-09-22T02:13:09.874Z,19.51
2018-09-22T02:14:09.941Z,19.39
2018-09-22T02:15:09.951Z,19.42
2018-09-22T02:16:10.012Z,19.46
2018-09-22T02:17:10.052Z,19.43
2018-09-22T02:18:10.361Z,19.43
2018-09-22T02:19:10.140Z,19.46
2018-09-22T02:20:10.181Z,19.38
2018-09-22T02:21:10.200Z,19.40
2018-09-22T02:22:10.303Z,19.40
2018-09-22T02:23:10.315Z,19.36
2018-09-22T02:24:10.659Z,19.40
2018-09-22T02:25:10.398Z,19.29
2018-09-22T02:26:10.457Z,19.31
2018-09-22T02:27:10.492Z,19.50
2018-09-22T02:28:10.520Z,19.33
2018-09-22T02:29:10.628Z,19.32
2018-09-22T02:30:10.943Z,19.24
2018-09-22T02:31:10.668Z,19.43
2018-09-22T02:32:10.705Z,19.38
2018-09-22T02:33:10.778Z,19.23
2018-09-22T02:34:10.809Z,19.31
2018-09-22T02:35:10.852Z,19.35
2018-09-22T02:36:10.899Z,19.32
2018-09-22T02:37:10.937Z,19.35
2018-09-22T02:38:10.979Z,19.39
2018-09-22T02:39:11.029Z,19.25
2018-09-22T02:40:11.404Z,19.33
2018-09-22T02:41:11.103Z,19.28
2018-09-22T02:42:11.155Z,19.39
2018-09-22T02:43:11.199Z,19.38
2018-09-22T02:44:11.239Z,19.25
2018-09-22T02:45:11.301Z,19.32
2018-09-22T02:46:11.315Z,19.38
2018-09-22T02:47:11.397Z,19.31
2018-09-22T02:48:11.438Z,19.28
2018-09-22T02:49:11.465Z,19.25
2018-09-22T02:50:11.777Z,19.23
2018-09-22T02:51:11.569Z,19.18
2018-09-22T02:52:11.590Z,19.17
2018-09-22T02:53:11.641Z,19.20
2018-09-22T02:54:11.713Z,19.14
2018-09-22T02:55:11.747Z,19.21
2018-09-22T02:56:12.089Z,19.10
2018-09-22T02:57:11.808Z,19.15
2018-09-22T02:58:11.878Z,19.15
2018-09-22T02:59:11.903Z,19.20
2018-09-22T03:00:11.988Z,19.17
2018-09-22T03:01:12.044Z,19.17
2018-09-22T03:02:12.305Z,19.08
2018-09-22T03:03:12.090Z,19.05
2018-09-22T03:04:12.130Z,19.01
2018-09-22T03:05:12.176Z,19.11
2018-09-22T03:06:12.227Z,19.02
2018-09-22T03:07:12.268Z,19.01
2018-09-22T03:08:12.602Z,18.97
2018-09-22T03:09:12.365Z,18.99
2018-09-22T03:10:12.400Z,18.91
2018-09-22T03:11:12.432Z,18.91
2018-09-22T03:12:12.477Z,18.84
2018-09-22T03:13:12.536Z,18.80
2018-09-22T03:14:12.577Z,18.87
2018-09-22T03:15:12.955Z,18.82
2018-09-22T03:16:12.668Z,18.82
2018-09-22T03:17:12.760Z,18.74
2018-09-22T03:18:12.757Z,18.82
2018-09-22T03:19:12.811Z,18.76
2018-09-22T03:20:12.841Z,18.79
2018-09-22T03:21:13.137Z,18.70
2018-09-22T03:22:12.917Z,18.70
2018-09-22T03:23:12.986Z,18.64
2018-09-22T03:24:13.016Z,18.67
2018-09-22T03:25:13.082Z,18.70
2018-09-22T03:26:13.117Z,18.73
2018-09-22T03:27:13.154Z,18.74
2018-09-22T03:28:13.183Z,18.68
2018-09-22T03:29:13.227Z,18.70
2018-09-22T03:30:13.305Z,18.67
2018-09-22T03:31:13.594Z,18.62
2018-09-22T03:32:13.385Z,18.55
2018-09-22T03:33:13.425Z,18.65
2018-09-22T03:34:13.517Z,18.65
2018-09-22T03:35:13.511Z,18.65
2018-09-22T03:36:13.551Z,18.58
2018-09-22T03:37:13.611Z,18.61
2018-09-22T03:38:13.689Z,18.54
2018-09-22T03:39:13.677Z,18.67
2018-09-22T03:40:13.720Z,18.62
2018-09-22T03:41:13.781Z,18.57
2018-09-22T03:42:14.076Z,18.57
2018-09-22T03:43:13.863Z,18.59
2018-09-22T03:44:13.917Z,18.62
2018-09-22T03:45:13.957Z,18.58
2018-09-22T03:46:14.006Z,18.61
2018-09-22T03:47:14.056Z,18.59
2018-09-22T03:48:14.128Z,18.59
2018-09-22T03:49:14.389Z,18.54
2018-09-22T03:50:14.220Z,18.59
2018-09-22T03:51:14.205Z,18.55
2018-09-22T03:52:14.255Z,18.50
2018-09-22T03:53:14.319Z,18.50
2018-09-22T03:54:14.355Z,18.54
2018-09-22T03:55:14.398Z,18.50
2018-09-22T03:56:14.748Z,18.46
2018-09-22T03:57:14.471Z,18.47
2018-09-22T03:58:14.527Z,18.49
2018-09-22T03:59:14.581Z,18.46
2018-09-22T04:00:14.614Z,18.40
2018-09-22T04:01:14.648Z,18.52
2018-09-22T04:02:14.701Z,18.42
2018-09-22T04:03:14.737Z,18.42
2018-09-22T04:04:14.801Z,18.40
2018-09-22T04:05:14.825Z,18.44
2018-09-22T04:06:15.143Z,18.49
2018-09-22T04:07:14.920Z,18.40
2018-09-22T04:08:14.969Z,18.43
2018-09-22T04:09:15.011Z,18.47
2018-09-22T04:10:15.061Z,18.39
2018-09-22T04:11:15.107Z,18.46
2018-09-22T04:12:15.420Z,18.37
2018-09-22T04:13:15.194Z,18.40
2018-09-22T04:14:15.239Z,18.40
2018-09-22T04:15:15.290Z,18.44
2018-09-22T04:16:15.339Z,18.29
2018-09-22T04:17:15.630Z,18.31
2018-09-22T04:18:15.461Z,18.29
2018-09-22T04:19:15.489Z,18.31
2018-09-22T04:20:15.546Z,18.25
2018-09-22T04:21:15.530Z,18.27
2018-09-22T04:22:15.615Z,18.25
2018-09-22T04:23:15.640Z,18.24
2018-09-22T04:24:16.025Z,18.24
2018-09-22T04:25:15.754Z,18.39
2018-09-22T04:26:15.823Z,18.37
2018-09-22T04:27:15.793Z,18.39
2018-09-22T04:28:15.873Z,18.39
2018-09-22T04:29:15.920Z,18.47
2018-09-22T04:30:16.241Z,18.50
2018-09-22T04:31:15.972Z,18.49
2018-09-22T04:32:16.042Z,18.47
2018-09-22T04:33:16.083Z,18.47
2018-09-22T04:34:16.100Z,18.54
2018-09-22T04:35:16.458Z,18.40
2018-09-22T04:36:16.252Z,18.40
2018-09-22T04:37:16.264Z,18.47
2018-09-22T04:38:16.303Z,18.39
2018-09-22T04:39:16.352Z,18.39
2018-09-22T04:40:16.379Z,18.47
2018-09-22T04:41:16.697Z,18.44
2018-09-22T04:42:16.514Z,18.46
2018-09-22T04:43:16.514Z,18.50
2018-09-22T04:44:16.604Z,18.42
2018-09-22T04:45:16.617Z,18.49
2018-09-22T04:46:16.672Z,18.47
2018-09-22T04:47:16.981Z,18.46
2018-09-22T04:48:16.723Z,18.47
2018-09-22T04:49:16.791Z,18.44
2018-09-22T04:50:16.823Z,18.40
2018-09-22T04:51:16.864Z,18.42
2018-09-22T04:52:16.892Z,18.43
2018-09-22T04:53:17.211Z,18.42
2018-09-22T04:54:17.031Z,18.46
2018-09-22T04:55:17.017Z,18.42
2018-09-22T04:56:17.086Z,18.42
2018-09-22T04:57:17.135Z,18.42
2018-09-22T04:58:17.467Z,18.39
2018-09-22T04:59:17.193Z,18.39
2018-09-22T05:00:17.262Z,18.39
2018-09-22T05:01:17.281Z,18.39
2018-09-22T05:02:17.349Z,18.40
2018-09-22T05:03:17.380Z,18.37
2018-09-22T05:04:17.475Z,18.36
2018-09-22T05:05:17.473Z,18.43
2018-09-22T05:06:17.510Z,18.31
2018-09-22T05:07:17.575Z,18.29
2018-09-22T05:08:17.591Z,18.33
2018-09-22T05:09:17.667Z,18.25
2018-09-22T05:10:17.991Z,18.28
2018-09-22T05:11:17.726Z,18.27
2018-09-22T05:12:17.829Z,18.28
2018-09-22T05:13:17.809Z,18.25
2018-09-22T05:14:17.872Z,18.25
2018-09-22T05:15:17.916Z,18.22
2018-09-22T05:16:17.986Z,18.24
2018-09-22T05:17:18.287Z,18.21
2018-09-22T05:18:18.008Z,18.27
2018-09-22T05:19:18.084Z,18.24
2018-09-22T05:20:18.153Z,18.22
2018-09-22T05:21:18.160Z,18.18
2018-09-22T05:22:18.523Z,18.13
2018-09-22T05:23:18.249Z,18.13
2018-09-22T05:24:18.301Z,18.15
2018-09-22T05:25:18.341Z,18.17
2018-09-22T05:26:18.382Z,18.18
2018-09-22T05:27:18.474Z,18.19
2018-09-22T05:28:18.466Z,18.18
2018-09-22T05:29:18.505Z,18.13
2018-09-22T05:30:18.573Z,18.18
2018-09-22T05:31:18.641Z,18.10
2018-09-22T05:32:18.955Z,18.10
2018-09-22T05:33:18.743Z,18.10
2018-09-22T05:34:18.735Z,18.17
2018-09-22T05:35:18.748Z,18.17
2018-09-22T05:36:18.856Z,18.15
2018-09-22T05:37:18.848Z,18.07
2018-09-22T05:38:18.913Z,18.12
2018-09-22T05:39:18.947Z,18.06
2018-09-22T05:40:18.990Z,18.15
2018-09-22T05:41:19.031Z,18.07
2018-09-22T05:42:19.134Z,18.07
2018-09-22T05:43:19.351Z,18.09
2018-09-22T05:44:19.148Z,18.09
2018-09-22T05:45:19.194Z,18.06
2018-09-22T05:46:19.287Z,18.09
2018-09-22T05:47:19.299Z,18.03
2018-09-22T05:48:19.324Z,18.09
2018-09-22T05:49:19.366Z,17.97
2018-09-22T05:50:19.413Z,18.03
2018-09-22T05:51:19.456Z,18.03
2018-09-22T05:52:19.487Z,18.00
2018-09-22T05:53:19.794Z,18.00
2018-09-22T05:54:19.574Z,18.00
2018-09-22T05:55:19.611Z,17.95
2018-09-22T05:56:19.715Z,17.95
2018-09-22T05:57:19.725Z,18.00
2018-09-22T05:58:19.797Z,18.03
2018-09-22T05:59:19.846Z,17.97
2018-09-22T06:00:19.857Z,17.99
2018-09-22T06:01:19.874Z,17.94
2018-09-22T06:02:19.945Z,17.94
2018-09-22T06:03:19.978Z,17.94
2018-09-22T06:04:20.271Z,17.76
2018-09-22T06:05:20.059Z,17.82
2018-09-22T06:06:20.111Z,17.82
2018-09-22T06:07:20.145Z,17.79
2018-09-22T06:08:20.175Z,17.74
2018-09-22T06:09:20.488Z,17.81
2018-09-22T06:10:20.271Z,17.76
2018-09-22T06:11:20.309Z,17.71
2018-09-22T06:12:20.378Z,17.67
2018-09-22T06:13:20.408Z,17.69
2018-09-22T06:14:20.445Z,17.62
2018-09-22T06:15:20.482Z,17.64
2018-09-22T06:16:20.542Z,17.59
2018-09-22T06:17:20.580Z,17.51
2018-09-22T06:18:20.633Z,17.50
2018-09-22T06:19:20.927Z,17.47
2018-09-22T06:20:20.718Z,17.47
2018-09-22T06:21:20.760Z,17.48
2018-09-22T06:22:20.784Z,17.44
2018-09-22T06:23:20.886Z,17.51
2018-09-22T06:24:21.170Z,17.44
2018-09-22T06:25:20.931Z,17.40
2018-09-22T06:26:20.979Z,17.40
2018-09-22T06:27:21.005Z,17.41
2018-09-22T06:28:21.051Z,17.44
2018-09-22T06:29:21.115Z,17.46
2018-09-22T06:30:21.439Z,17.51
2018-09-22T06:31:21.170Z,17.51
2018-09-22T06:32:21.229Z,17.47
2018-09-22T06:33:21.287Z,17.47
2018-09-22T06:34:21.319Z,17.44
2018-09-22T06:35:21.603Z,17.50
2018-09-22T06:36:21.387Z,17.51
2018-09-22T06:37:21.478Z,17.48
2018-09-22T06:38:21.493Z,17.46
2018-09-22T06:39:21.510Z,17.46
2018-09-22T06:40:21.548Z,17.47
2018-09-22T06:41:21.959Z,17.41
2018-09-22T06:42:21.657Z,17.44
2018-09-22T06:43:21.711Z,17.51
2018-09-22T06:44:21.735Z,17.47
2018-09-22T06:45:21.790Z,17.43
2018-09-22T06:46:22.065Z,17.44
2018-09-22T06:47:21.851Z,17.44
2018-09-22T06:48:21.905Z,17.43
2018-09-22T06:49:21.947Z,17.33
2018-09-22T06:50:21.988Z,17.36
2018-09-22T06:51:22.016Z,17.38
2018-09-22T06:52:22.313Z,17.29
2018-09-22T06:53:22.140Z,17.26
2018-09-22T06:54:22.179Z,17.23
2018-09-22T06:55:22.209Z,17.30
2018-09-22T06:56:22.250Z,17.25
2018-09-22T06:57:22.600Z,17.23
2018-09-22T06:58:22.329Z,17.15
2018-09-22T06:59:22.380Z,17.18
2018-09-22T07:00:22.420Z,17.18
2018-09-22T07:01:22.496Z,17.23
2018-09-22T07:02:22.510Z,17.14
2018-09-22T07:03:22.538Z,17.13
2018-09-22T07:04:22.576Z,17.14
2018-09-22T07:05:22.625Z,17.17
2018-09-22T07:06:22.724Z,17.20
2018-09-22T07:07:23.019Z,17.13
2018-09-22T07:08:22.765Z,17.14
2018-09-22T07:09:22.795Z,17.18
2018-09-22T07:10:22.830Z,17.14
2018-09-22T07:11:22.885Z,17.13
2018-09-22T07:12:22.934Z,17.13
2018-09-22T07:13:23.219Z,17.10
2018-09-22T07:14:23.028Z,17.14
2018-09-22T07:15:23.041Z,17.06
2018-09-22T07:16:23.114Z,17.15
2018-09-22T07:17:23.148Z,17.07
2018-09-22T07:18:23.494Z,17.13
2018-09-22T07:19:23.284Z,17.08
2018-09-22T07:20:23.265Z,17.07
2018-09-22T07:21:23.303Z,17.08
2018-09-22T07:22:23.399Z,17.11
2018-09-22T07:23:23.387Z,17.07
2018-09-22T07:24:23.436Z,17.15
2018-09-22T07:25:23.480Z,17.13
2018-09-22T07:26:23.538Z,17.17
2018-09-22T07:27:23.578Z,17.08
2018-09-22T07:28:23.632Z,17.07
2018-09-22T07:29:24.274Z,17.06
2018-09-22T07:30:23.694Z,17.08
2018-09-22T07:31:23.755Z,17.06
2018-09-22T07:32:23.789Z,17.03
2018-09-22T07:33:23.831Z,17.03
2018-09-22T07:34:23.913Z,16.95
2018-09-22T07:35:23.916Z,17.03
2018-09-22T07:36:24.007Z,16.96
2018-09-22T07:37:24.002Z,16.93
2018-09-22T07:38:24.030Z,16.96
2018-09-22T07:39:24.122Z,16.88
2018-09-22T07:40:24.414Z,16.93
2018-09-22T07:41:24.173Z,16.88
2018-09-22T07:42:24.229Z,16.98
2018-09-22T07:43:24.236Z,16.93
2018-09-22T07:44:24.307Z,16.93
2018-09-22T07:45:24.329Z,16.93
2018-09-22T07:46:24.682Z,16.96
2018-09-22T07:47:24.729Z,16.85
2018-09-22T07:48:24.467Z,16.86
2018-09-22T07:49:24.553Z,16.83
2018-09-22T07:50:24.552Z,16.77
2018-09-22T07:51:24.595Z,16.78
2018-09-22T07:52:24.678Z,16.89
2018-09-22T07:53:24.690Z,16.86
2018-09-22T07:54:24.742Z,16.78
2018-09-22T07:55:24.763Z,16.78
2018-09-22T07:56:24.855Z,16.86
2018-09-22T07:57:25.097Z,16.81
2018-09-22T07:58:24.930Z,16.83
2018-09-22T07:59:24.934Z,16.88
2018-09-22T08:00:25.095Z,16.78
2018-09-22T08:01:25.033Z,16.74
2018-09-22T08:02:25.045Z,16.70
2018-09-22T08:03:25.395Z,16.65
2018-09-22T08:04:25.139Z,16.74
2018-09-22T08:05:25.191Z,16.74
2018-09-22T08:06:25.256Z,16.74
2018-09-22T08:07:25.277Z,16.78
2018-09-22T08:08:25.295Z,16.75
2018-09-22T08:09:25.371Z,16.75
2018-09-22T08:10:25.413Z,16.81
2018-09-22T08:11:25.431Z,16.78
2018-09-22T08:12:25.467Z,16.78
2018-09-22T08:13:25.819Z,16.85
2018-09-22T08:14:25.583Z,16.75
2018-09-22T08:15:25.625Z,16.77
2018-09-22T08:16:25.646Z,16.85
2018-09-22T08:17:25.707Z,16.74
2018-09-22T08:18:25.798Z,16.74
2018-09-22T08:19:26.087Z,16.80
2018-09-22T08:20:25.839Z,16.78
2018-09-22T08:21:25.866Z,16.77
2018-09-22T08:22:25.943Z,16.77
2018-09-22T08:23:25.950Z,16.77
2018-09-22T08:24:26.016Z,16.60
2018-09-22T08:25:26.349Z,16.71
2018-09-22T08:26:26.082Z,16.67
2018-09-22T08:27:26.143Z,16.60
2018-09-22T08:28:26.220Z,16.68
2018-09-22T08:29:26.215Z,16.74
2018-09-22T08:30:26.247Z,16.65
2018-09-22T08:31:26.305Z,16.77
2018-09-22T08:32:26.655Z,16.77
2018-09-22T08:33:26.355Z,16.70
2018-09-22T08:34:26.412Z,16.65
2018-09-22T08:35:26.478Z,16.68
2018-09-22T08:36:26.760Z,16.77
2018-09-22T08:37:26.995Z,16.75
2018-09-22T08:38:26.579Z,16.75
2018-09-22T08:39:26.628Z,16.77
2018-09-22T08:40:26.688Z,16.77
2018-09-22T08:41:26.748Z,16.80
2018-09-22T08:42:26.754Z,16.74
2018-09-22T08:43:26.842Z,16.75
2018-09-22T08:44:26.833Z,16.80
2018-09-22T08:45:26.930Z,16.75
2018-09-22T08:46:26.928Z,16.70
2018-09-22T08:47:27.260Z,16.75
2018-09-22T08:48:27.012Z,16.77
2018-09-22T08:49:27.049Z,16.68
2018-09-22T08:50:27.108Z,16.71
2018-09-22T08:51:27.145Z,16.68
2018-09-22T08:52:27.471Z,16.70
2018-09-22T08:53:27.205Z,16.65
2018-09-22T08:54:27.249Z,16.68
2018-09-22T08:55:27.296Z,16.77
2018-09-22T08:56:27.345Z,16.70
2018-09-22T08:57:27.395Z,16.63
2018-09-22T08:58:27.666Z,16.62
2018-09-22T08:59:27.479Z,16.67
2018-09-22T09:00:27.563Z,16.68
2018-09-22T09:01:27.555Z,16.67
2018-09-22T09:02:27.636Z,16.74
2018-09-22T09:03:27.639Z,16.74
2018-09-22T09:04:27.953Z,16.77
2018-09-22T09:05:27.740Z,16.75
2018-09-22T09:06:27.781Z,16.83
2018-09-22T09:07:27.803Z,16.78
2018-09-22T09:08:27.871Z,16.93
2018-09-22T09:09:27.923Z,16.89
2018-09-22T09:10:28.195Z,16.85
2018-09-22T09:11:28.079Z,16.89
2018-09-22T09:12:28.044Z,16.92
2018-09-22T09:13:28.114Z,16.90
2018-09-22T09:14:28.159Z,16.93
2018-09-22T09:15:28.175Z,16.89
2018-09-22T09:16:28.457Z,16.93
2018-09-22T09:17:28.253Z,16.86
2018-09-22T09:18:28.290Z,16.85
2018-09-22T09:19:28.346Z,16.95
2018-09-22T09:20:28.386Z,16.90
2018-09-22T09:21:28.465Z,16.92
2018-09-22T09:22:28.761Z,16.98
2018-09-22T09:23:28.489Z,16.95
2018-09-22T09:24:28.551Z,16.93
2018-09-22T09:25:28.620Z,16.92
2018-09-22T09:26:28.639Z,16.93
2018-09-22T09:27:28.762Z,17.03
2018-09-22T09:28:29.023Z,17.03
2018-09-22T09:29:28.738Z,17.17
2018-09-22T09:30:28.803Z,17.25
2018-09-22T09:31:28.836Z,17.23
2018-09-22T09:32:28.895Z,17.25
2018-09-22T09:33:29.207Z,17.23
2018-09-22T09:34:28.983Z,17.43
2018-09-22T09:35:29.004Z,17.41
2018-09-22T09:36:29.046Z,17.44
2018-09-22T09:37:29.105Z,17.48
2018-09-22T09:38:29.142Z,17.59
2018-09-22T09:39:29.187Z,17.67
2018-09-22T09:40:29.517Z,17.76
2018-09-22T09:41:29.282Z,17.91
2018-09-22T09:42:29.324Z,17.89
2018-09-22T09:43:29.359Z,18.00
2018-09-22T09:44:29.394Z,18.02
2018-09-22T09:45:29.438Z,18.12
2018-09-22T09:46:29.788Z,18.07
2018-09-22T09:47:29.529Z,18.27
2018-09-22T09:48:29.575Z,18.12
2018-09-22T09:49:29.650Z,18.22
2018-09-22T09:50:29.660Z,18.24
2018-09-22T09:51:29.709Z,18.24
2018-09-22T09:52:29.995Z,18.25
2018-09-22T09:53:29.780Z,18.31
2018-09-22T09:54:29.887Z,18.43
2018-09-22T09:55:29.868Z,18.44
2018-09-22T09:56:29.930Z,18.68
2018-09-22T09:57:30.225Z,18.79
2018-09-22T09:58:30.024Z,19.15
2018-09-22T09:59:30.043Z,19.33
2018-09-22T10:00:30.103Z,19.47
2018-09-22T10:01:30.152Z,19.55
2018-09-22T10:02:30.239Z,19.60
2018-09-22T10:03:30.250Z,19.58
2018-09-22T10:04:30.382Z,19.65
2018-09-22T10:05:30.328Z,19.54
2018-09-22T10:06:30.364Z,19.61
2018-09-22T10:07:30.435Z,19.68
2018-09-22T10:08:30.772Z,19.63
2018-09-22T10:09:30.503Z,19.78
2018-09-22T10:10:30.569Z,19.90
2018-09-22T10:11:30.610Z,20.34
2018-09-22T10:12:30.667Z,20.96
2018-09-22T10:13:30.670Z,21.60
2018-09-22T10:14:30.729Z,21.97
2018-09-22T10:15:30.794Z,22.53
2018-09-22T10:16:30.812Z,22.65
2018-09-22T10:17:30.850Z,23.20
2018-09-22T10:18:30.906Z,23.76
2018-09-22T10:19:30.963Z,24.26
2018-09-22T10:20:31.480Z,24.64
2018-09-22T10:21:31.061Z,25.06
2018-09-22T10:22:31.111Z,25.27
2018-09-22T10:23:31.166Z,25.35
2018-09-22T10:24:31.252Z,25.50
2018-09-22T10:25:31.255Z,25.50
2018-09-22T10:26:31.298Z,25.43
2018-09-22T10:27:31.350Z,25.39
2018-09-22T10:28:31.457Z,25.67
2018-09-22T10:29:31.452Z,26.18
2018-09-22T10:30:31.503Z,26.50
2018-09-22T10:31:31.868Z,26.73
2018-09-22T10:32:31.611Z,26.99
2018-09-22T10:33:31.664Z,27.33
2018-09-22T10:34:31.716Z,27.70
2018-09-22T10:35:31.777Z,28.14
2018-09-22T10:36:31.797Z,28.36
2018-09-22T10:37:32.115Z,28.90
2018-09-22T10:38:31.965Z,29.33
2018-09-22T10:39:32.018Z,29.60
2018-09-22T10:40:32.000Z,29.84
2018-09-22T10:41:32.071Z,29.99
2018-09-22T10:42:32.130Z,30.30
2018-09-22T10:43:32.169Z,30.49
2018-09-22T10:44:32.225Z,30.61
2018-09-22T10:45:32.273Z,30.80
2018-09-22T10:46:32.335Z,30.75
2018-09-22T10:47:32.690Z,30.43
2018-09-22T10:48:32.445Z,30.61
2018-09-22T10:49:32.498Z,30.76
2018-09-22T10:50:32.540Z,30.57
2018-09-22T10:51:32.625Z,30.67
2018-09-22T10:52:32.656Z,30.57
2018-09-22T10:53:32.724Z,30.47
2018-09-22T10:54:33.081Z,30.61
2018-09-22T10:55:32.812Z,30.38
2018-09-22T10:56:32.868Z,29.81
2018-09-22T10:57:32.904Z,29.62
2018-09-22T10:58:32.982Z,29.47
2018-09-22T10:59:33.294Z,29.44
2018-09-22T11:00:33.091Z,29.33
2018-09-22T11:01:33.143Z,29.50
2018-09-22T11:02:33.196Z,29.82
2018-09-22T11:03:33.275Z,29.72
2018-09-22T11:04:33.348Z,30.00
2018-09-22T11:05:33.361Z,30.23
2018-09-22T11:06:33.425Z,30.46
2018-09-22T11:07:33.503Z,31.12
2018-09-22T11:08:33.550Z,30.75
2018-09-22T11:09:33.894Z,30.81
2018-09-22T11:10:33.648Z,31.13
2018-09-22T11:11:33.706Z,31.01
2018-09-22T11:12:33.771Z,30.62
2018-09-22T11:13:33.777Z,30.47
2018-09-22T11:14:33.886Z,30.43
2018-09-22T11:15:33.914Z,29.81
2018-09-22T11:16:33.987Z,29.28
2018-09-22T11:17:34.008Z,29.08
2018-09-22T11:18:34.103Z,29.08
2018-09-22T11:19:34.148Z,29.74
2018-09-22T11:20:34.197Z,30.15
2018-09-22T11:21:34.470Z,30.36
2018-09-22T11:22:34.335Z,30.54
2018-09-22T11:23:34.397Z,30.84
2018-09-22T11:24:34.405Z,30.90
2018-09-22T11:25:34.473Z,31.26
2018-09-22T11:26:34.530Z,31.45
2018-09-22T11:27:34.848Z,31.53
2018-09-22T11:28:34.637Z,31.93
2018-09-22T11:29:34.706Z,32.22
2018-09-22T11:30:34.734Z,32.51
2018-09-22T11:31:34.817Z,32.77
2018-09-22T11:32:34.878Z,33.17
2018-09-22T11:33:35.210Z,33.55
2018-09-22T11:34:34.984Z,33.58
2018-09-22T11:35:35.028Z,34.00
2018-09-22T11:36:35.069Z,33.53
2018-09-22T11:37:35.142Z,33.14
2018-09-22T11:38:35.208Z,32.93
2018-09-22T11:39:35.552Z,32.37
2018-09-22T11:40:35.324Z,32.27
2018-09-22T11:41:35.425Z,32.22
2018-09-22T11:42:35.428Z,31.98
2018-09-22T11:43:35.475Z,31.85
2018-09-22T11:44:35.585Z,32.18
2018-09-22T11:45:35.599Z,32.54
2018-09-22T11:46:35.668Z,32.74
2018-09-22T11:47:35.695Z,33.31
2018-09-22T11:48:35.780Z,33.92
2018-09-22T11:49:35.864Z,33.90
2018-09-22T11:50:36.192Z,33.37
2018-09-22T11:51:35.947Z,33.85
2018-09-22T11:52:36.046Z,33.82
2018-09-22T11:53:36.029Z,33.42
2018-09-22T11:54:36.110Z,33.70
2018-09-22T11:55:36.163Z,33.26
2018-09-22T11:56:36.592Z,33.27
2018-09-22T11:57:36.271Z,33.51
2018-09-22T11:58:36.374Z,33.49
2018-09-22T11:59:36.389Z,33.43
2018-09-22T12:00:36.436Z,33.71
2018-09-22T12:01:36.534Z,33.57
2018-09-22T12:02:36.560Z,33.27
2018-09-22T12:03:36.632Z,33.42
2018-09-22T12:04:36.728Z,33.10
2018-09-22T12:05:36.735Z,32.74
2018-09-22T12:06:36.909Z,32.35
2018-09-22T12:07:36.858Z,32.76
2018-09-22T12:08:36.901Z,33.22
2018-09-22T12:09:36.973Z,33.67
2018-09-22T12:10:37.030Z,33.94
2018-09-22T12:11:37.132Z,34.04
2018-09-22T12:12:37.145Z,34.51
2018-09-22T12:13:37.195Z,34.00
2018-09-22T12:14:37.526Z,33.86
2018-09-22T12:15:37.313Z,33.90
2018-09-22T12:16:37.382Z,34.32
2018-09-22T12:17:37.484Z,34.19
2018-09-22T12:18:37.509Z,34.22
2018-09-22T12:19:37.558Z,34.48
2018-09-22T12:20:37.618Z,34.84
2018-09-22T12:21:37.676Z,35.11
2018-09-22T12:22:37.737Z,35.37
2018-09-22T12:23:37.844Z,35.47
2018-09-22T12:24:37.844Z,35.44
2018-09-22T12:25:37.912Z,34.96
2018-09-22T12:26:37.980Z,34.63
2018-09-22T12:27:38.044Z,34.58
2018-09-22T12:28:38.070Z,34.72
2018-09-22T12:29:38.127Z,35.20
2018-09-22T12:30:38.196Z,35.17
2018-09-22T12:31:38.241Z,35.67
2018-09-22T12:32:38.554Z,35.76
2018-09-22T12:33:38.390Z,36.23
2018-09-22T12:34:38.449Z,36.36
2018-09-22T12:35:38.493Z,35.28
2018-09-22T12:36:38.568Z,34.34
2018-09-22T12:37:38.617Z,33.89
2018-09-22T12:38:38.985Z,33.53
2018-09-22T12:39:38.758Z,33.36
2018-09-22T12:40:38.774Z,33.20
2018-09-22T12:41:38.861Z,33.17
2018-09-22T12:42:38.892Z,33.27
2018-09-22T12:43:38.968Z,33.52
2018-09-22T12:44:39.334Z,33.42
2018-09-22T12:45:39.105Z,33.10
2018-09-22T12:46:39.199Z,33.14
2018-09-22T12:47:39.206Z,32.69
2018-09-22T12:48:39.286Z,32.42
2018-09-22T12:49:39.313Z,32.86
2018-09-22T12:50:39.398Z,32.95
2018-09-22T12:51:39.450Z,32.96
2018-09-22T12:52:39.518Z,33.10